Thornaby, United Kingdom
Current Conditions -  °F | °C
As of 10:50 PM on Thursday 27 Nov 2014 (Local Time) from EGNV Reporting Station
Light Rain Light Rain  
Wind Chill: 43°   Ceiling: 2000
Heat Index: 46°   Visibility: 4mi
Dew Point: 46°   Wind: 7mph
Humidity: 100%   Direction: 170°S
Pressure: 29.62"   Gusts: NA
Location:  54.54°N, 1.3°W
Report Text: EGNV 272150Z 17006KT 7000 -RA SCT006 BKN020 08/08 Q1003
Loading
Personal Weather Stations






























Interactive Weather Map New forecast layout! Learn more

10-Day Weather Forecast

Advertisements
Track Severe Weather on mobile